Terminal Aerodrome Forecast
Issued by NWS Tuscon, AZ

Home | Current Version | Previous Version | Text Only | Print | Product List | Glossary On
Versions: 1 2 3 4 5 6 7 8 9 10 11 12
000
FTUS45 KTWC 282321
TAFTUS
TAF
KTUS 282321Z 2900/2924 30008G16KT P6SM SKC
     FM290300 32007KT P6SM SKC
     FM290800 14006KT P6SM SCT250
     FM291500 VRB04KT P6SM SCT250
     FM291900 30008KT P6SM SCT250=

USA.gov is the U.S. government's official web portal to all federal, state and local government web resources and services.